sensor_id;sensor_type;location;lat;lon;timestamp;temperature;humidity
45945;DHT22;31655;48.972;10.686;2022-10-13T00:01:46;8.60;99.90
45945;DHT22;31655;48.972;10.686;2022-10-13T00:04:12;8.70;99.90
45945;DHT22;31655;48.972;10.686;2022-10-13T00:06:38;8.50;99.90
45945;DHT22;31655;48.972;10.686;2022-10-13T00:09:03;9.10;99.90
45945;DHT22;31655;48.972;10.686;2022-10-13T00:14:00;8.40;99.90
45945;DHT22;31655;48.972;10.686;2022-10-13T00:16:27;8.40;99.90
45945;DHT22;31655;48.972;10.686;2022-10-13T00:18:54;8.50;99.90
45945;DHT22;31655;48.972;10.686;2022-10-13T00:21:22;8.40;99.90
45945;DHT22;31655;48.972;10.686;2022-10-13T00:23:49;9.00;99.90
45945;DHT22;31655;48.972;10.686;2022-10-13T00:26:16;9.50;99.90
45945;DHT22;31655;48.972;10.686;2022-10-13T00:28:42;8.40;99.90
45945;DHT22;31655;48.972;10.686;2022-10-13T00:31:28;8.60;99.90
45945;DHT22;31655;48.972;10.686;2022-10-13T00:33:56;8.80;99.90
45945;DHT22;31655;48.972;10.686;2022-10-13T00:36:23;8.80;99.90
45945;DHT22;31655;48.972;10.686;2022-10-13T00:38:49;8.90;99.90
45945;DHT22;31655;48.972;10.686;2022-10-13T00:41:15;9.00;99.90
45945;DHT22;31655;48.972;10.686;2022-10-13T00:44:02;9.00;99.90
45945;DHT22;31655;48.972;10.686;2022-10-13T00:46:33;9.20;99.90
45945;DHT22;31655;48.972;10.686;2022-10-13T00:49:06;9.00;99.90
45945;DHT22;31655;48.972;10.686;2022-10-13T00:51:37;8.80;99.90
45945;DHT22;31655;48.972;10.686;2022-10-13T00:54:04;9.30;99.90
45945;DHT22;31655;48.972;10.686;2022-10-13T00:56:31;9.00;99.90
45945;DHT22;31655;48.972;10.686;2022-10-13T00:58:59;9.10;99.90
45945;DHT22;31655;48.972;10.686;2022-10-13T01:01:25;9.00;99.90
45945;DHT22;31655;48.972;10.686;2022-10-13T01:03:51;8.90;99.90
45945;DHT22;31655;48.972;10.686;2022-10-13T01:06:18;9.00;99.90
45945;DHT22;31655;48.972;10.686;2022-10-13T01:08:43;9.10;99.90
45945;DHT22;31655;48.972;10.686;2022-10-13T01:11:21;9.20;99.90
45945;DHT22;31655;48.972;10.686;2022-10-13T01:28:12;9.30;99.90
45945;DHT22;31655;48.972;10.686;2022-10-13T01:30:54;9.30;99.90
45945;DHT22;31655;48.972;10.686;2022-10-13T01:33:41;9.30;99.90
45945;DHT22;31655;48.972;10.686;2022-10-13T01:36:22;9.30;99.90
45945;DHT22;31655;48.972;10.686;2022-10-13T01:39:02;9.20;99.90
45945;DHT22;31655;48.972;10.686;2022-10-13T01:41:41;9.20;99.90
45945;DHT22;31655;48.972;10.686;2022-10-13T01:44:23;9.20;99.90
45945;DHT22;31655;48.972;10.686;2022-10-13T01:46:50;9.20;99.90
45945;DHT22;31655;48.972;10.686;2022-10-13T01:49:18;9.20;99.90
45945;DHT22;31655;48.972;10.686;2022-10-13T01:51:46;9.20;99.90
45945;DHT22;31655;48.972;10.686;2022-10-13T01:54:13;9.10;99.90
45945;DHT22;31655;48.972;10.686;2022-10-13T01:56:38;10.10;99.90
45945;DHT22;31655;48.972;10.686;2022-10-13T01:59:10;9.10;99.90
45945;DHT22;31655;48.972;10.686;2022-10-13T02:04:34;9.10;99.90
45945;DHT22;31655;48.972;10.686;2022-10-13T02:07:23;9.10;99.90
45945;DHT22;31655;48.972;10.686;2022-10-13T02:10:16;9.00;99.90
45945;DHT22;31655;48.972;10.686;2022-10-13T02:15:20;9.00;99.90
45945;DHT22;31655;48.972;10.686;2022-10-13T02:17:46;9.00;99.90
45945;DHT22;31655;48.972;10.686;2022-10-13T02:20:12;8.90;99.90
45945;DHT22;31655;48.972;10.686;2022-10-13T02:22:44;9.00;99.90
45945;DHT22;31655;48.972;10.686;2022-10-13T02:25:11;9.00;99.90
45945;DHT22;31655;48.972;10.686;2022-10-13T02:27:36;9.00;99.90
45945;DHT22;31655;48.972;10.686;2022-10-13T02:30:03;9.20;99.90
45945;DHT22;31655;48.972;10.686;2022-10-13T02:32:30;9.00;99.90
45945;DHT22;31655;48.972;10.686;2022-10-13T02:34:56;9.00;99.90
45945;DHT22;31655;48.972;10.686;2022-10-13T02:37:21;8.90;99.90
45945;DHT22;31655;48.972;10.686;2022-10-13T02:39:50;9.30;99.90
45945;DHT22;31655;48.972;10.686;2022-10-13T02:42:15;9.00;99.90
45945;DHT22;31655;48.972;10.686;2022-10-13T02:44:41;9.00;99.90
45945;DHT22;31655;48.972;10.686;2022-10-13T02:49:32;9.00;99.90
45945;DHT22;31655;48.972;10.686;2022-10-13T02:51:58;9.00;99.90
45945;DHT22;31655;48.972;10.686;2022-10-13T02:54:24;8.90;99.90
45945;DHT22;31655;48.972;10.686;2022-10-13T02:56:49;8.90;99.90
45945;DHT22;31655;48.972;10.686;2022-10-13T02:59:15;8.90;99.90
45945;DHT22;31655;48.972;10.686;2022-10-13T03:01:40;8.90;99.90
45945;DHT22;31655;48.972;10.686;2022-10-13T03:04:07;8.90;99.90
45945;DHT22;31655;48.972;10.686;2022-10-13T03:06:33;9.10;99.90
45945;DHT22;31655;48.972;10.686;2022-10-13T03:08:59;9.00;99.90
45945;DHT22;31655;48.972;10.686;2022-10-13T03:11:24;8.80;99.90
45945;DHT22;31655;48.972;10.686;2022-10-13T03:13:50;8.80;99.90
45945;DHT22;31655;48.972;10.686;2022-10-13T03:16:16;8.80;99.90
45945;DHT22;31655;48.972;10.686;2022-10-13T03:18:42;9.00;99.90
45945;DHT22;31655;48.972;10.686;2022-10-13T03:21:09;8.90;99.90
45945;DHT22;31655;48.972;10.686;2022-10-13T03:23:35;8.90;99.90
45945;DHT22;31655;48.972;10.686;2022-10-13T03:26:01;9.40;99.90
45945;DHT22;31655;48.972;10.686;2022-10-13T03:31:04;8.90;99.90
45945;DHT22;31655;48.972;10.686;2022-10-13T03:33:30;8.90;99.90
45945;DHT22;31655;48.972;10.686;2022-10-13T03:36:00;8.90;99.90
45945;DHT22;31655;48.972;10.686;2022-10-13T03:38:27;9.20;99.90
45945;DHT22;31655;48.972;10.686;2022-10-13T03:40:53;8.90;99.90
45945;DHT22;31655;48.972;10.686;2022-10-13T03:43:18;8.90;99.90
45945;DHT22;31655;48.972;10.686;2022-10-13T03:45:52;8.90;99.90
45945;DHT22;31655;48.972;10.686;2022-10-13T03:48:18;8.80;99.90
45945;DHT22;31655;48.972;10.686;2022-10-13T03:50:43;8.80;99.90
45945;DHT22;31655;48.972;10.686;2022-10-13T03:53:09;8.90;99.90
45945;DHT22;31655;48.972;10.686;2022-10-13T03:55:36;8.80;99.90
45945;DHT22;31655;48.972;10.686;2022-10-13T03:58:02;8.80;99.90
45945;DHT22;31655;48.972;10.686;2022-10-13T04:00:28;8.80;99.90
45945;DHT22;31655;48.972;10.686;2022-10-13T04:02:53;8.80;99.90
45945;DHT22;31655;48.972;10.686;2022-10-13T04:05:19;8.80;99.90
45945;DHT22;31655;48.972;10.686;2022-10-13T04:07:44;8.90;99.90
45945;DHT22;31655;48.972;10.686;2022-10-13T04:12:36;8.90;99.90
45945;DHT22;31655;48.972;10.686;2022-10-13T04:15:02;8.80;99.90
45945;DHT22;31655;48.972;10.686;2022-10-13T04:17:29;8.80;99.90
45945;DHT22;31655;48.972;10.686;2022-10-13T04:22:20;8.80;99.90
45945;DHT22;31655;48.972;10.686;2022-10-13T04:24:46;8.90;99.90
45945;DHT22;31655;48.972;10.686;2022-10-13T04:27:12;8.80;99.90
45945;DHT22;31655;48.972;10.686;2022-10-13T04:29:40;8.80;99.90
45945;DHT22;31655;48.972;10.686;2022-10-13T04:32:06;8.90;99.90
45945;DHT22;31655;48.972;10.686;2022-10-13T04:34:31;8.90;99.90
45945;DHT22;31655;48.972;10.686;2022-10-13T04:36:57;8.90;99.90
45945;DHT22;31655;48.972;10.686;2022-10-13T04:39:23;8.90;99.90
45945;DHT22;31655;48.972;10.686;2022-10-13T04:41:48;9.00;99.90
45945;DHT22;31655;48.972;10.686;2022-10-13T04:44:15;9.10;99.90
45945;DHT22;31655;48.972;10.686;2022-10-13T04:46:40;9.00;99.90
45945;DHT22;31655;48.972;10.686;2022-10-13T04:49:06;9.10;99.90
45945;DHT22;31655;48.972;10.686;2022-10-13T04:51:31;9.00;99.90
45945;DHT22;31655;48.972;10.686;2022-10-13T04:53:59;9.00;99.90
45945;DHT22;31655;48.972;10.686;2022-10-13T04:56:25;9.00;99.90
45945;DHT22;31655;48.972;10.686;2022-10-13T04:58:51;9.00;99.90
45945;DHT22;31655;48.972;10.686;2022-10-13T05:01:20;9.00;99.90
45945;DHT22;31655;48.972;10.686;2022-10-13T05:03:46;9.00;99.90
45945;DHT22;31655;48.972;10.686;2022-10-13T05:06:16;9.00;99.90
45945;DHT22;31655;48.972;10.686;2022-10-13T05:08:42;9.00;99.90
45945;DHT22;31655;48.972;10.686;2022-10-13T05:11:07;9.70;99.90
45945;DHT22;31655;48.972;10.686;2022-10-13T05:13:36;9.00;99.90
45945;DHT22;31655;48.972;10.686;2022-10-13T05:16:09;8.90;99.90
45945;DHT22;31655;48.972;10.686;2022-10-13T05:18:36;9.00;99.90
45945;DHT22;31655;48.972;10.686;2022-10-13T05:21:09;8.90;99.90
45945;DHT22;31655;48.972;10.686;2022-10-13T05:23:36;9.00;99.90
45945;DHT22;31655;48.972;10.686;2022-10-13T05:26:03;9.00;99.90
45945;DHT22;31655;48.972;10.686;2022-10-13T05:28:29;9.00;99.90
45945;DHT22;31655;48.972;10.686;2022-10-13T05:33:21;9.10;99.90
45945;DHT22;31655;48.972;10.686;2022-10-13T05:35:46;9.10;99.90
45945;DHT22;31655;48.972;10.686;2022-10-13T05:38:12;9.10;99.90
45945;DHT22;31655;48.972;10.686;2022-10-13T05:40:38;9.10;99.90
45945;DHT22;31655;48.972;10.686;2022-10-13T05:43:03;9.10;99.90
45945;DHT22;31655;48.972;10.686;2022-10-13T05:45:31;9.00;99.90
45945;DHT22;31655;48.972;10.686;2022-10-13T05:47:58;9.20;99.90
45945;DHT22;31655;48.972;10.686;2022-10-13T05:50:23;9.50;99.90
45945;DHT22;31655;48.972;10.686;2022-10-13T05:52:50;9.20;99.90
45945;DHT22;31655;48.972;10.686;2022-10-13T05:55:16;9.20;99.90
45945;DHT22;31655;48.972;10.686;2022-10-13T05:57:46;9.20;99.90
45945;DHT22;31655;48.972;10.686;2022-10-13T06:00:16;9.20;99.90
45945;DHT22;31655;48.972;10.686;2022-10-13T06:02:52;9.30;99.90
45945;DHT22;31655;48.972;10.686;2022-10-13T06:05:20;9.40;99.90
45945;DHT22;31655;48.972;10.686;2022-10-13T06:07:47;9.40;99.90
45945;DHT22;31655;48.972;10.686;2022-10-13T06:10:13;9.30;99.90
45945;DHT22;31655;48.972;10.686;2022-10-13T06:12:39;9.40;99.90
45945;DHT22;31655;48.972;10.686;2022-10-13T06:15:05;9.50;99.90
45945;DHT22;31655;48.972;10.686;2022-10-13T06:17:35;9.50;99.90
45945;DHT22;31655;48.972;10.686;2022-10-13T06:20:01;9.50;99.90
45945;DHT22;31655;48.972;10.686;2022-10-13T06:22:26;9.60;99.90
45945;DHT22;31655;48.972;10.686;2022-10-13T06:24:52;9.60;99.90
45945;DHT22;31655;48.972;10.686;2022-10-13T06:27:17;9.50;99.90
45945;DHT22;31655;48.972;10.686;2022-10-13T06:29:43;9.50;99.90
45945;DHT22;31655;48.972;10.686;2022-10-13T06:32:09;9.60;99.90
45945;DHT22;31655;48.972;10.686;2022-10-13T06:34:34;9.50;99.90
45945;DHT22;31655;48.972;10.686;2022-10-13T06:37:00;9.50;99.90
45945;DHT22;31655;48.972;10.686;2022-10-13T06:39:25;9.60;99.90
45945;DHT22;31655;48.972;10.686;2022-10-13T06:41:51;9.60;99.90
45945;DHT22;31655;48.972;10.686;2022-10-13T06:44:17;9.50;99.90
45945;DHT22;31655;48.972;10.686;2022-10-13T06:46:42;9.50;99.90
45945;DHT22;31655;48.972;10.686;2022-10-13T06:49:08;9.60;99.90
45945;DHT22;31655;48.972;10.686;2022-10-13T06:51:34;9.60;99.90
45945;DHT22;31655;48.972;10.686;2022-10-13T06:54:00;9.70;99.90
45945;DHT22;31655;48.972;10.686;2022-10-13T06:56:26;9.60;99.90
45945;DHT22;31655;48.972;10.686;2022-10-13T06:58:53;9.60;99.90
45945;DHT22;31655;48.972;10.686;2022-10-13T07:03:48;9.70;99.90
45945;DHT22;31655;48.972;10.686;2022-10-13T07:06:14;9.80;99.90
45945;DHT22;31655;48.972;10.686;2022-10-13T07:08:39;9.80;99.90
45945;DHT22;31655;48.972;10.686;2022-10-13T07:11:10;9.80;99.90
45945;DHT22;31655;48.972;10.686;2022-10-13T07:13:37;9.90;99.90
45945;DHT22;31655;48.972;10.686;2022-10-13T07:16:04;9.90;99.90
45945;DHT22;31655;48.972;10.686;2022-10-13T07:18:31;10.00;99.90
45945;DHT22;31655;48.972;10.686;2022-10-13T07:20:58;9.90;99.90
45945;DHT22;31655;48.972;10.686;2022-10-13T07:23:24;10.10;99.90
45945;DHT22;31655;48.972;10.686;2022-10-13T07:25:50;10.10;99.90
45945;DHT22;31655;48.972;10.686;2022-10-13T07:30:41;10.10;99.90
45945;DHT22;31655;48.972;10.686;2022-10-13T07:33:07;10.00;99.90
45945;DHT22;31655;48.972;10.686;2022-10-13T07:35:33;10.10;99.90
45945;DHT22;31655;48.972;10.686;2022-10-13T07:37:59;10.10;99.90
45945;DHT22;31655;48.972;10.686;2022-10-13T07:40:24;10.30;99.90
45945;DHT22;31655;48.972;10.686;2022-10-13T07:42:51;10.30;99.90
45945;DHT22;31655;48.972;10.686;2022-10-13T07:45:16;10.40;99.90
45945;DHT22;31655;48.972;10.686;2022-10-13T07:47:42;10.40;99.90
45945;DHT22;31655;48.972;10.686;2022-10-13T07:50:08;10.30;99.90
45945;DHT22;31655;48.972;10.686;2022-10-13T07:52:35;10.30;99.90
45945;DHT22;31655;48.972;10.686;2022-10-13T07:55:01;10.30;99.90
45945;DHT22;31655;48.972;10.686;2022-10-13T07:57:26;10.30;99.90
45945;DHT22;31655;48.972;10.686;2022-10-13T07:59:52;10.40;99.90
45945;DHT22;31655;48.972;10.686;2022-10-13T08:02:18;10.40;99.90
45945;DHT22;31655;48.972;10.686;2022-10-13T08:04:44;10.50;99.90
45945;DHT22;31655;48.972;10.686;2022-10-13T08:07:10;10.50;99.90
45945;DHT22;31655;48.972;10.686;2022-10-13T08:09:36;10.60;99.90
45945;DHT22;31655;48.972;10.686;2022-10-13T08:12:02;10.60;99.90
45945;DHT22;31655;48.972;10.686;2022-10-13T08:14:29;10.70;99.90
45945;DHT22;31655;48.972;10.686;2022-10-13T08:16:56;10.90;99.90
45945;DHT22;31655;48.972;10.686;2022-10-13T08:19:22;11.00;99.90
45945;DHT22;31655;48.972;10.686;2022-10-13T08:21:48;11.10;99.90
45945;DHT22;31655;48.972;10.686;2022-10-13T08:24:16;11.10;99.90
45945;DHT22;31655;48.972;10.686;2022-10-13T08:26:43;11.10;99.90
45945;DHT22;31655;48.972;10.686;2022-10-13T08:29:09;11.10;99.90
45945;DHT22;31655;48.972;10.686;2022-10-13T08:31:35;11.10;99.90
45945;DHT22;31655;48.972;10.686;2022-10-13T08:34:01;11.20;99.90
45945;DHT22;31655;48.972;10.686;2022-10-13T08:36:26;11.30;99.90
45945;DHT22;31655;48.972;10.686;2022-10-13T08:38:52;11.50;99.90
45945;DHT22;31655;48.972;10.686;2022-10-13T08:41:27;11.50;99.90
45945;DHT22;31655;48.972;10.686;2022-10-13T08:44:04;11.50;99.90
45945;DHT22;31655;48.972;10.686;2022-10-13T08:46:40;11.60;99.90
45945;DHT22;31655;48.972;10.686;2022-10-13T08:49:07;11.60;99.90
45945;DHT22;31655;48.972;10.686;2022-10-13T08:51:33;11.50;99.90
45945;DHT22;31655;48.972;10.686;2022-10-13T08:54:00;11.40;99.90
45945;DHT22;31655;48.972;10.686;2022-10-13T08:56:38;11.30;99.90
45945;DHT22;31655;48.972;10.686;2022-10-13T08:59:04;11.30;99.90
45945;DHT22;31655;48.972;10.686;2022-10-13T09:01:34;11.40;99.90
45945;DHT22;31655;48.972;10.686;2022-10-13T09:07:13;11.50;99.90
45945;DHT22;31655;48.972;10.686;2022-10-13T09:09:39;11.70;99.90
45945;DHT22;31655;48.972;10.686;2022-10-13T09:12:05;11.80;99.90
45945;DHT22;31655;48.972;10.686;2022-10-13T09:14:36;11.90;99.90
45945;DHT22;31655;48.972;10.686;2022-10-13T09:17:18;11.80;99.90
45945;DHT22;31655;48.972;10.686;2022-10-13T09:20:06;11.80;99.90
45945;DHT22;31655;48.972;10.686;2022-10-13T09:22:33;11.70;99.90
45945;DHT22;31655;48.972;10.686;2022-10-13T09:30:27;11.60;99.90
45945;DHT22;31655;48.972;10.686;2022-10-13T09:35:34;11.80;99.90
45945;DHT22;31655;48.972;10.686;2022-10-13T09:38:04;11.90;99.90
45945;DHT22;31655;48.972;10.686;2022-10-13T09:40:30;11.90;99.90
45945;DHT22;31655;48.972;10.686;2022-10-13T09:42:57;12.00;99.90
45945;DHT22;31655;48.972;10.686;2022-10-13T09:45:24;12.10;99.90
45945;DHT22;31655;48.972;10.686;2022-10-13T09:47:51;12.30;99.90
45945;DHT22;31655;48.972;10.686;2022-10-13T09:50:28;12.30;99.90
45945;DHT22;31655;48.972;10.686;2022-10-13T09:53:14;12.30;99.90
45945;DHT22;31655;48.972;10.686;2022-10-13T09:55:41;12.40;99.90
45945;DHT22;31655;48.972;10.686;2022-10-13T09:58:27;12.60;99.90
45945;DHT22;31655;48.972;10.686;2022-10-13T10:00:54;12.50;99.90
45945;DHT22;31655;48.972;10.686;2022-10-13T10:03:30;12.50;99.90
45945;DHT22;31655;48.972;10.686;2022-10-13T10:06:00;12.80;99.90
45945;DHT22;31655;48.972;10.686;2022-10-13T10:11:16;12.80;99.90
45945;DHT22;31655;48.972;10.686;2022-10-13T10:13:43;12.90;99.90
45945;DHT22;31655;48.972;10.686;2022-10-13T10:16:28;12.90;99.90
45945;DHT22;31655;48.972;10.686;2022-10-13T10:19:04;12.90;99.90
45945;DHT22;31655;48.972;10.686;2022-10-13T10:24:24;13.10;99.90
45945;DHT22;31655;48.972;10.686;2022-10-13T10:26:58;13.10;99.90
45945;DHT22;31655;48.972;10.686;2022-10-13T10:29:39;13.10;99.90
45945;DHT22;31655;48.972;10.686;2022-10-13T10:35:19;13.00;99.90
45945;DHT22;31655;48.972;10.686;2022-10-13T10:40:35;13.20;99.90
45945;DHT22;31655;48.972;10.686;2022-10-13T10:45:36;13.10;99.90
45945;DHT22;31655;48.972;10.686;2022-10-13T10:50:36;13.40;99.90
45945;DHT22;31655;48.972;10.686;2022-10-13T10:53:12;13.40;99.90
45945;DHT22;31655;48.972;10.686;2022-10-13T11:06:55;14.10;99.90
45945;DHT22;31655;48.972;10.686;2022-10-13T11:15:07;15.20;99.90
45945;DHT22;31655;48.972;10.686;2022-10-13T11:17:38;15.40;99.90
45945;DHT22;31655;48.972;10.686;2022-10-13T11:50:41;14.50;99.90
45945;DHT22;31655;48.972;10.686;2022-10-13T11:53:22;14.50;99.90
45945;DHT22;31655;48.972;10.686;2022-10-13T11:55:56;14.50;99.90
45945;DHT22;31655;48.972;10.686;2022-10-13T11:58:30;14.60;99.90
45945;DHT22;31655;48.972;10.686;2022-10-13T12:01:02;14.60;99.90
45945;DHT22;31655;48.972;10.686;2022-10-13T12:03:31;14.80;99.90
45945;DHT22;31655;48.972;10.686;2022-10-13T12:06:01;14.80;99.90
45945;DHT22;31655;48.972;10.686;2022-10-13T12:08:28;14.80;99.90
45945;DHT22;31655;48.972;10.686;2022-10-13T12:10:55;14.80;99.90
45945;DHT22;31655;48.972;10.686;2022-10-13T12:13:24;14.70;99.90
45945;DHT22;31655;48.972;10.686;2022-10-13T12:15:57;14.90;99.90
45945;DHT22;31655;48.972;10.686;2022-10-13T12:18:28;15.20;99.90
45945;DHT22;31655;48.972;10.686;2022-10-13T12:21:02;15.10;99.90
45945;DHT22;31655;48.972;10.686;2022-10-13T12:23:30;15.10;99.90
45945;DHT22;31655;48.972;10.686;2022-10-13T12:25:56;15.10;99.90
45945;DHT22;31655;48.972;10.686;2022-10-13T12:28:25;14.90;99.90
45945;DHT22;31655;48.972;10.686;2022-10-13T12:30:57;14.90;99.90
45945;DHT22;31655;48.972;10.686;2022-10-13T12:33:30;14.80;99.90
45945;DHT22;31655;48.972;10.686;2022-10-13T12:36:17;14.90;99.90
45945;DHT22;31655;48.972;10.686;2022-10-13T12:38:49;15.10;99.90
45945;DHT22;31655;48.972;10.686;2022-10-13T12:41:18;15.10;99.90
45945;DHT22;31655;48.972;10.686;2022-10-13T12:43:45;15.20;99.90
45945;DHT22;31655;48.972;10.686;2022-10-13T12:46:11;15.20;99.90
45945;DHT22;31655;48.972;10.686;2022-10-13T12:48:37;15.30;99.90
45945;DHT22;31655;48.972;10.686;2022-10-13T12:51:26;15.30;99.90
45945;DHT22;31655;48.972;10.686;2022-10-13T12:53:52;15.50;99.90
45945;DHT22;31655;48.972;10.686;2022-10-13T12:56:29;15.40;99.90
45945;DHT22;31655;48.972;10.686;2022-10-13T12:58:56;15.40;99.90
45945;DHT22;31655;48.972;10.686;2022-10-13T13:01:26;15.30;99.90
45945;DHT22;31655;48.972;10.686;2022-10-13T13:09:30;15.00;99.90
45945;DHT22;31655;48.972;10.686;2022-10-13T13:12:18;15.10;99.90
45945;DHT22;31655;48.972;10.686;2022-10-13T13:14:47;14.90;99.90
45945;DHT22;31655;48.972;10.686;2022-10-13T13:19:45;14.90;99.90
45945;DHT22;31655;48.972;10.686;2022-10-13T13:22:11;14.80;99.90
45945;DHT22;31655;48.972;10.686;2022-10-13T13:24:37;14.80;99.90
45945;DHT22;31655;48.972;10.686;2022-10-13T13:29:40;14.80;99.90
45945;DHT22;31655;48.972;10.686;2022-10-13T13:32:10;14.70;99.90
45945;DHT22;31655;48.972;10.686;2022-10-13T13:34:36;14.60;99.90
45945;DHT22;31655;48.972;10.686;2022-10-13T13:39:27;14.60;99.90
45945;DHT22;31655;48.972;10.686;2022-10-13T13:41:55;14.60;99.90
45945;DHT22;31655;48.972;10.686;2022-10-13T13:44:20;14.70;99.90
45945;DHT22;31655;48.972;10.686;2022-10-13T13:46:46;14.70;99.90
45945;DHT22;31655;48.972;10.686;2022-10-13T13:56:30;14.40;99.90
45945;DHT22;31655;48.972;10.686;2022-10-13T13:58:56;14.40;99.90
45945;DHT22;31655;48.972;10.686;2022-10-13T14:01:21;14.30;99.90
45945;DHT22;31655;48.972;10.686;2022-10-13T14:03:47;14.30;99.90
45945;DHT22;31655;48.972;10.686;2022-10-13T14:06:18;14.40;99.90
45945;DHT22;31655;48.972;10.686;2022-10-13T14:08:44;14.70;99.90
45945;DHT22;31655;48.972;10.686;2022-10-13T14:11:10;14.80;99.90
45945;DHT22;31655;48.972;10.686;2022-10-13T14:13:36;14.90;99.90
45945;DHT22;31655;48.972;10.686;2022-10-13T14:16:02;15.40;99.90
45945;DHT22;31655;48.972;10.686;2022-10-13T14:18:29;15.40;99.90
45945;DHT22;31655;48.972;10.686;2022-10-13T14:20:55;15.50;99.90
45945;DHT22;31655;48.972;10.686;2022-10-13T14:23:20;15.50;99.90
45945;DHT22;31655;48.972;10.686;2022-10-13T14:25:46;15.20;99.90
45945;DHT22;31655;48.972;10.686;2022-10-13T14:28:12;15.00;99.90
45945;DHT22;31655;48.972;10.686;2022-10-13T14:30:39;15.00;99.90
45945;DHT22;31655;48.972;10.686;2022-10-13T14:33:05;15.00;99.90
45945;DHT22;31655;48.972;10.686;2022-10-13T14:35:31;14.90;99.90
45945;DHT22;31655;48.972;10.686;2022-10-13T14:37:56;14.90;99.90
45945;DHT22;31655;48.972;10.686;2022-10-13T14:40:22;14.80;99.90
45945;DHT22;31655;48.972;10.686;2022-10-13T14:42:47;14.80;99.90
45945;DHT22;31655;48.972;10.686;2022-10-13T14:45:13;14.90;99.90
45945;DHT22;31655;48.972;10.686;2022-10-13T14:47:40;15.10;99.90
45945;DHT22;31655;48.972;10.686;2022-10-13T14:50:06;15.10;99.90
45945;DHT22;31655;48.972;10.686;2022-10-13T14:52:32;15.10;99.90
45945;DHT22;31655;48.972;10.686;2022-10-13T14:54:57;15.10;99.90
45945;DHT22;31655;48.972;10.686;2022-10-13T14:57:23;15.10;99.90
45945;DHT22;31655;48.972;10.686;2022-10-13T14:59:49;15.00;99.90
45945;DHT22;31655;48.972;10.686;2022-10-13T15:02:14;15.00;99.90
45945;DHT22;31655;48.972;10.686;2022-10-13T15:04:40;15.00;99.90
45945;DHT22;31655;48.972;10.686;2022-10-13T15:07:06;14.90;99.90
45945;DHT22;31655;48.972;10.686;2022-10-13T15:09:32;15.00;99.90
45945;DHT22;31655;48.972;10.686;2022-10-13T15:11:58;15.00;99.90
45945;DHT22;31655;48.972;10.686;2022-10-13T15:14:23;14.90;99.90
45945;DHT22;31655;48.972;10.686;2022-10-13T15:16:49;14.80;99.90
45945;DHT22;31655;48.972;10.686;2022-10-13T15:19:15;14.80;99.90
45945;DHT22;31655;48.972;10.686;2022-10-13T15:21:40;14.70;99.90
45945;DHT22;31655;48.972;10.686;2022-10-13T15:24:06;14.70;99.90
45945;DHT22;31655;48.972;10.686;2022-10-13T15:26:32;14.70;99.90
45945;DHT22;31655;48.972;10.686;2022-10-13T15:28:59;14.60;99.90
45945;DHT22;31655;48.972;10.686;2022-10-13T15:31:24;14.60;99.90
45945;DHT22;31655;48.972;10.686;2022-10-13T15:33:52;14.60;99.90
45945;DHT22;31655;48.972;10.686;2022-10-13T15:36:18;14.60;99.90
45945;DHT22;31655;48.972;10.686;2022-10-13T15:38:45;14.50;99.90
45945;DHT22;31655;48.972;10.686;2022-10-13T15:43:37;14.20;99.90
45945;DHT22;31655;48.972;10.686;2022-10-13T15:46:05;14.00;99.90
45945;DHT22;31655;48.972;10.686;2022-10-13T15:48:32;13.90;99.90
45945;DHT22;31655;48.972;10.686;2022-10-13T15:50:58;13.90;99.90
45945;DHT22;31655;48.972;10.686;2022-10-13T16:00:43;13.80;99.90
45945;DHT22;31655;48.972;10.686;2022-10-13T16:03:16;13.70;99.90
45945;DHT22;31655;48.972;10.686;2022-10-13T16:05:43;13.70;99.90
45945;DHT22;31655;48.972;10.686;2022-10-13T16:08:09;13.70;99.90
45945;DHT22;31655;48.972;10.686;2022-10-13T16:10:38;13.60;99.90
45945;DHT22;31655;48.972;10.686;2022-10-13T16:13:05;13.50;99.90
45945;DHT22;31655;48.972;10.686;2022-10-13T16:15:30;13.40;99.90
45945;DHT22;31655;48.972;10.686;2022-10-13T16:17:56;13.40;99.90
45945;DHT22;31655;48.972;10.686;2022-10-13T16:20:22;13.40;99.90
45945;DHT22;31655;48.972;10.686;2022-10-13T16:27:39;13.30;99.90
45945;DHT22;31655;48.972;10.686;2022-10-13T16:30:05;13.30;99.90
45945;DHT22;31655;48.972;10.686;2022-10-13T16:32:39;13.20;99.90
45945;DHT22;31655;48.972;10.686;2022-10-13T16:35:06;13.20;99.90
45945;DHT22;31655;48.972;10.686;2022-10-13T16:37:32;13.30;99.90
45945;DHT22;31655;48.972;10.686;2022-10-13T16:39:58;13.30;99.90
45945;DHT22;31655;48.972;10.686;2022-10-13T16:42:24;13.20;99.90
45945;DHT22;31655;48.972;10.686;2022-10-13T16:44:50;13.20;99.90
45945;DHT22;31655;48.972;10.686;2022-10-13T16:47:15;13.20;99.90
45945;DHT22;31655;48.972;10.686;2022-10-13T16:49:41;13.20;99.90
45945;DHT22;31655;48.972;10.686;2022-10-13T16:54:32;13.00;99.90
45945;DHT22;31655;48.972;10.686;2022-10-13T16:56:58;13.00;99.90
45945;DHT22;31655;48.972;10.686;2022-10-13T16:59:25;13.10;99.90
45945;DHT22;31655;48.972;10.686;2022-10-13T17:01:50;13.20;99.90
45945;DHT22;31655;48.972;10.686;2022-10-13T17:04:16;13.10;99.90
45945;DHT22;31655;48.972;10.686;2022-10-13T17:06:42;13.30;99.90
45945;DHT22;31655;48.972;10.686;2022-10-13T17:09:08;13.10;99.90
45945;DHT22;31655;48.972;10.686;2022-10-13T17:11:34;13.20;99.90
45945;DHT22;31655;48.972;10.686;2022-10-13T17:14:02;13.10;99.90
45945;DHT22;31655;48.972;10.686;2022-10-13T17:16:28;13.10;99.90
45945;DHT22;31655;48.972;10.686;2022-10-13T17:18:54;13.10;99.90
45945;DHT22;31655;48.972;10.686;2022-10-13T17:21:20;13.00;99.90
45945;DHT22;31655;48.972;10.686;2022-10-13T17:26:13;12.90;99.90
45945;DHT22;31655;48.972;10.686;2022-10-13T17:28:40;12.70;99.90
45945;DHT22;31655;48.972;10.686;2022-10-13T17:33:37;12.70;99.90
45945;DHT22;31655;48.972;10.686;2022-10-13T17:36:10;12.60;99.90
45945;DHT22;31655;48.972;10.686;2022-10-13T17:38:36;12.50;99.90
45945;DHT22;31655;48.972;10.686;2022-10-13T17:41:04;12.50;99.90
45945;DHT22;31655;48.972;10.686;2022-10-13T17:43:30;12.50;99.90
45945;DHT22;31655;48.972;10.686;2022-10-13T17:46:11;12.50;99.90
45945;DHT22;31655;48.972;10.686;2022-10-13T17:48:37;12.50;99.90
45945;DHT22;31655;48.972;10.686;2022-10-13T17:51:07;12.40;99.90
45945;DHT22;31655;48.972;10.686;2022-10-13T17:53:34;12.50;99.90
45945;DHT22;31655;48.972;10.686;2022-10-13T17:56:04;12.60;99.90
45945;DHT22;31655;48.972;10.686;2022-10-13T17:58:30;12.40;99.90
45945;DHT22;31655;48.972;10.686;2022-10-13T18:00:57;12.50;99.90
45945;DHT22;31655;48.972;10.686;2022-10-13T18:03:23;12.40;99.90
45945;DHT22;31655;48.972;10.686;2022-10-13T18:05:50;12.40;99.90